sensor_id;sensor_type;location;lat;lon;timestamp;pressure;altitude;pressure_sealevel;temperature;humidity
46430;BME280;32131;53.454;-6.180;2023-02-03T00:01:30;102449.94;;;9.74;97.42
46430;BME280;32131;53.454;-6.180;2023-02-03T00:03:58;102461.22;;;9.77;97.39
46430;BME280;32131;53.454;-6.180;2023-02-03T00:06:26;102464.59;;;9.75;97.65
46430;BME280;32131;53.454;-6.180;2023-02-03T00:08:56;102468.97;;;9.77;97.69
46430;BME280;32131;53.454;-6.180;2023-02-03T00:11:25;102481.69;;;9.73;97.92
46430;BME280;32131;53.454;-6.180;2023-02-03T00:13:53;102490.84;;;9.67;98.62
46430;BME280;32131;53.454;-6.180;2023-02-03T00:16:23;102484.00;;;9.67;99.14
46430;BME280;32131;53.454;-6.180;2023-02-03T00:18:51;102483.91;;;9.66;99.11
46430;BME280;32131;53.454;-6.180;2023-02-03T00:21:19;102494.38;;;9.69;99.43
46430;BME280;32131;53.454;-6.180;2023-02-03T00:23:47;102496.22;;;9.71;99.55
46430;BME280;32131;53.454;-6.180;2023-02-03T00:26:16;102489.28;;;9.70;100.00
46430;BME280;32131;53.454;-6.180;2023-02-03T00:28:44;102495.19;;;9.68;100.00
46430;BME280;32131;53.454;-6.180;2023-02-03T00:31:14;102499.53;;;9.69;100.00
46430;BME280;32131;53.454;-6.180;2023-02-03T00:33:45;102501.38;;;9.71;100.00
46430;BME280;32131;53.454;-6.180;2023-02-03T00:36:13;102497.19;;;9.73;100.00
46430;BME280;32131;53.454;-6.180;2023-02-03T00:38:41;102488.56;;;9.73;100.00
46430;BME280;32131;53.454;-6.180;2023-02-03T00:41:09;102481.84;;;9.77;100.00
46430;BME280;32131;53.454;-6.180;2023-02-03T00:43:37;102493.94;;;9.78;100.00
46430;BME280;32131;53.454;-6.180;2023-02-03T00:46:05;102488.91;;;9.81;100.00
46430;BME280;32131;53.454;-6.180;2023-02-03T00:48:34;102488.91;;;9.81;100.00
46430;BME280;32131;53.454;-6.180;2023-02-03T00:51:04;102495.03;;;9.83;100.00
46430;BME280;32131;53.454;-6.180;2023-02-03T00:53:32;102491.50;;;9.81;100.00
46430;BME280;32131;53.454;-6.180;2023-02-03T00:56:00;102493.94;;;9.78;100.00
46430;BME280;32131;53.454;-6.180;2023-02-03T00:58:28;102480.84;;;9.73;100.00
46430;BME280;32131;53.454;-6.180;2023-02-03T01:00:56;102487.38;;;9.66;100.00
46430;BME280;32131;53.454;-6.180;2023-02-03T01:03:24;102489.69;;;9.60;100.00
46430;BME280;32131;53.454;-6.180;2023-02-03T01:05:52;102487.41;;;9.48;100.00
46430;BME280;32131;53.454;-6.180;2023-02-03T01:08:22;102492.03;;;9.37;100.00
46430;BME280;32131;53.454;-6.180;2023-02-03T01:10:50;102495.13;;;9.30;100.00
46430;BME280;32131;53.454;-6.180;2023-02-03T01:13:18;102498.38;;;9.26;100.00
46430;BME280;32131;53.454;-6.180;2023-02-03T01:15:46;102495.47;;;9.20;100.00
46430;BME280;32131;53.454;-6.180;2023-02-03T01:18:14;102503.13;;;9.18;100.00
46430;BME280;32131;53.454;-6.180;2023-02-03T01:20:42;102508.13;;;9.15;100.00
46430;BME280;32131;53.454;-6.180;2023-02-03T01:23:10;102508.06;;;9.13;100.00
46430;BME280;32131;53.454;-6.180;2023-02-03T01:25:40;102521.75;;;9.12;100.00
46430;BME280;32131;53.454;-6.180;2023-02-03T01:28:08;102518.66;;;9.20;100.00
46430;BME280;32131;53.454;-6.180;2023-02-03T01:30:36;102529.22;;;9.24;100.00
46430;BME280;32131;53.454;-6.180;2023-02-03T01:33:04;102539.63;;;9.26;100.00
46430;BME280;32131;53.454;-6.180;2023-02-03T01:35:33;102552.75;;;9.31;100.00
46430;BME280;32131;53.454;-6.180;2023-02-03T01:38:01;102535.72;;;9.34;100.00
46430;BME280;32131;53.454;-6.180;2023-02-03T01:40:29;102541.75;;;9.35;100.00
46430;BME280;32131;53.454;-6.180;2023-02-03T01:42:59;102543.13;;;9.28;100.00
46430;BME280;32131;53.454;-6.180;2023-02-03T01:45:27;102541.16;;;9.22;100.00
46430;BME280;32131;53.454;-6.180;2023-02-03T01:47:57;102539.28;;;9.20;100.00
46430;BME280;32131;53.454;-6.180;2023-02-03T01:50:28;102542.84;;;9.22;100.00
46430;BME280;32131;53.454;-6.180;2023-02-03T01:53:01;102549.94;;;9.26;100.00
46430;BME280;32131;53.454;-6.180;2023-02-03T01:55:33;102540.66;;;9.30;100.00
46430;BME280;32131;53.454;-6.180;2023-02-03T01:58:07;102548.44;;;9.31;100.00
46430;BME280;32131;53.454;-6.180;2023-02-03T02:00:38;102558.13;;;9.35;100.00
46430;BME280;32131;53.454;-6.180;2023-02-03T02:03:06;102552.28;;;9.39;100.00
46430;BME280;32131;53.454;-6.180;2023-02-03T02:05:39;102555.97;;;9.44;100.00
46430;BME280;32131;53.454;-6.180;2023-02-03T02:08:11;102552.53;;;9.44;100.00
46430;BME280;32131;53.454;-6.180;2023-02-03T02:10:40;102555.09;;;9.44;100.00
46430;BME280;32131;53.454;-6.180;2023-02-03T02:13:11;102563.69;;;9.44;100.00
46430;BME280;32131;53.454;-6.180;2023-02-03T02:15:46;102568.06;;;9.46;100.00
46430;BME280;32131;53.454;-6.180;2023-02-03T02:18:30;102566.59;;;9.51;100.00
46430;BME280;32131;53.454;-6.180;2023-02-03T02:21:15;102559.81;;;9.53;100.00
46430;BME280;32131;53.454;-6.180;2023-02-03T02:24:12;102563.34;;;9.55;100.00
46430;BME280;32131;53.454;-6.180;2023-02-03T02:27:02;102576.34;;;9.56;100.00
46430;BME280;32131;53.454;-6.180;2023-02-03T02:32:42;102568.72;;;9.59;100.00
46430;BME280;32131;53.454;-6.180;2023-02-03T02:35:15;102564.53;;;9.62;100.00
46430;BME280;32131;53.454;-6.180;2023-02-03T02:37:49;102576.63;;;9.63;100.00
46430;BME280;32131;53.454;-6.180;2023-02-03T02:40:22;102581.78;;;9.63;100.00
46430;BME280;32131;53.454;-6.180;2023-02-03T02:43:01;102582.66;;;9.63;100.00
46430;BME280;32131;53.454;-6.180;2023-02-03T02:45:36;102578.53;;;9.67;100.00
46430;BME280;32131;53.454;-6.180;2023-02-03T02:48:16;102573.38;;;9.67;100.00
46430;BME280;32131;53.454;-6.180;2023-02-03T02:50:48;102573.47;;;9.68;100.00
46430;BME280;32131;53.454;-6.180;2023-02-03T02:53:19;102574.41;;;9.70;100.00
46430;BME280;32131;53.454;-6.180;2023-02-03T02:55:48;102582.16;;;9.70;100.00
46430;BME280;32131;53.454;-6.180;2023-02-03T02:58:18;102574.41;;;9.70;100.00
46430;BME280;32131;53.454;-6.180;2023-02-03T03:00:48;102581.34;;;9.71;100.00
46430;BME280;32131;53.454;-6.180;2023-02-03T03:03:20;102577.94;;;9.72;100.00
46430;BME280;32131;53.454;-6.180;2023-02-03T03:05:51;102578.84;;;9.73;100.00
46430;BME280;32131;53.454;-6.180;2023-02-03T03:08:24;102588.34;;;9.74;100.00
46430;BME280;32131;53.454;-6.180;2023-02-03T03:10:56;102581.50;;;9.74;100.00
46430;BME280;32131;53.454;-6.180;2023-02-03T03:13:28;102578.91;;;9.74;100.00
46430;BME280;32131;53.454;-6.180;2023-02-03T03:16:01;102571.19;;;9.74;100.00
46430;BME280;32131;53.454;-6.180;2023-02-03T03:18:34;102568.53;;;9.73;100.00
46430;BME280;32131;53.454;-6.180;2023-02-03T03:21:04;102556.44;;;9.72;100.00
46430;BME280;32131;53.454;-6.180;2023-02-03T03:23:37;102558.00;;;9.68;100.00
46430;BME280;32131;53.454;-6.180;2023-02-03T03:26:09;102573.38;;;9.67;100.00
46430;BME280;32131;53.454;-6.180;2023-02-03T03:28:43;102570.72;;;9.65;100.00
46430;BME280;32131;53.454;-6.180;2023-02-03T03:31:14;102573.47;;;9.68;100.00
46430;BME280;32131;53.454;-6.180;2023-02-03T03:33:44;102570.97;;;9.70;100.00
46430;BME280;32131;53.454;-6.180;2023-02-03T03:36:19;102574.50;;;9.72;100.00
46430;BME280;32131;53.454;-6.180;2023-02-03T03:38:54;102568.59;;;9.74;100.00
46430;BME280;32131;53.454;-6.180;2023-02-03T03:41:29;102566.19;;;9.78;100.00
46430;BME280;32131;53.454;-6.180;2023-02-03T03:44:03;102573.19;;;9.80;100.00
46430;BME280;32131;53.454;-6.180;2023-02-03T03:46:37;102567.22;;;9.81;100.00
46430;BME280;32131;53.454;-6.180;2023-02-03T03:49:09;102563.88;;;9.84;100.00
46430;BME280;32131;53.454;-6.180;2023-02-03T03:51:41;102566.47;;;9.84;100.00
46430;BME280;32131;53.454;-6.180;2023-02-03T03:54:13;102564.75;;;9.84;100.00
46430;BME280;32131;53.454;-6.180;2023-02-03T03:56:46;102563.06;;;9.85;100.00
46430;BME280;32131;53.454;-6.180;2023-02-03T03:59:19;102551.84;;;9.84;100.00
46430;BME280;32131;53.454;-6.180;2023-02-03T04:01:50;102561.31;;;9.84;100.00
46430;BME280;32131;53.454;-6.180;2023-02-03T04:04:22;102555.03;;;9.79;100.00
46430;BME280;32131;53.454;-6.180;2023-02-03T04:06:52;102563.59;;;9.78;100.00
46430;BME280;32131;53.454;-6.180;2023-02-03T04:09:21;102561.66;;;9.73;100.00
46430;BME280;32131;53.454;-6.180;2023-02-03T04:11:49;102557.31;;;9.72;100.00
46430;BME280;32131;53.454;-6.180;2023-02-03T04:14:32;102558.06;;;9.70;100.00
46430;BME280;32131;53.454;-6.180;2023-02-03T04:17:01;102559.59;;;9.66;100.00
46430;BME280;32131;53.454;-6.180;2023-02-03T04:19:31;102545.81;;;9.66;100.00
46430;BME280;32131;53.454;-6.180;2023-02-03T04:21:59;102552.69;;;9.65;100.00
46430;BME280;32131;53.454;-6.180;2023-02-03T04:24:27;102543.97;;;9.63;100.00
46430;BME280;32131;53.454;-6.180;2023-02-03T04:26:55;102556.06;;;9.64;100.00
46430;BME280;32131;53.454;-6.180;2023-02-03T04:29:23;102547.47;;;9.64;100.00
46430;BME280;32131;53.454;-6.180;2023-02-03T04:31:51;102544.72;;;9.60;100.00
46430;BME280;32131;53.454;-6.180;2023-02-03T04:34:19;102543.03;;;9.61;100.00
46430;BME280;32131;53.454;-6.180;2023-02-03T04:36:49;102547.97;;;9.56;100.00
46430;BME280;32131;53.454;-6.180;2023-02-03T04:39:17;102537.44;;;9.52;100.00
46430;BME280;32131;53.454;-6.180;2023-02-03T04:41:45;102551.13;;;9.51;100.00
46430;BME280;32131;53.454;-6.180;2023-02-03T04:44:13;102539.03;;;9.50;100.00
46430;BME280;32131;53.454;-6.180;2023-02-03T04:46:41;102537.44;;;9.52;100.00
46430;BME280;32131;53.454;-6.180;2023-02-03T04:49:10;102534.00;;;9.53;100.00
46430;BME280;32131;53.454;-6.180;2023-02-03T04:51:38;102530.63;;;9.54;100.00
46430;BME280;32131;53.454;-6.180;2023-02-03T04:54:07;102530.50;;;9.51;100.00
46430;BME280;32131;53.454;-6.180;2023-02-03T04:56:37;102528.56;;;9.47;100.00
46430;BME280;32131;53.454;-6.180;2023-02-03T04:59:05;102522.38;;;9.43;100.00
46430;BME280;32131;53.454;-6.180;2023-02-03T05:01:33;102525.53;;;9.37;100.00
46430;BME280;32131;53.454;-6.180;2023-02-03T05:04:01;102532.34;;;9.35;100.00
46430;BME280;32131;53.454;-6.180;2023-02-03T05:06:29;102527.03;;;9.32;100.00
46430;BME280;32131;53.454;-6.180;2023-02-03T05:08:58;102525.25;;;9.31;100.00
46430;BME280;32131;53.454;-6.180;2023-02-03T05:11:28;102536.22;;;9.27;100.00
46430;BME280;32131;53.454;-6.180;2023-02-03T05:13:56;102548.78;;;9.21;100.00
46430;BME280;32131;53.454;-6.180;2023-02-03T05:16:25;102532.41;;;9.19;100.00
46430;BME280;32131;53.454;-6.180;2023-02-03T05:18:53;102552.41;;;9.24;100.00
46430;BME280;32131;53.454;-6.180;2023-02-03T05:21:21;102549.25;;;9.30;100.00
46430;BME280;32131;53.454;-6.180;2023-02-03T05:23:49;102547.81;;;9.35;100.00
46430;BME280;32131;53.454;-6.180;2023-02-03T05:26:18;102547.13;;;9.39;100.00
46430;BME280;32131;53.454;-6.180;2023-02-03T05:28:47;102557.69;;;9.44;100.00
46430;BME280;32131;53.454;-6.180;2023-02-03T05:31:18;102560.41;;;9.47;100.00
46430;BME280;32131;53.454;-6.180;2023-02-03T05:33:46;102564.03;;;9.51;100.00
46430;BME280;32131;53.454;-6.180;2023-02-03T05:36:14;102571.81;;;9.52;100.00
46430;BME280;32131;53.454;-6.180;2023-02-03T05:38:42;102568.50;;;9.55;100.00
46430;BME280;32131;53.454;-6.180;2023-02-03T05:41:11;102579.72;;;9.55;100.00
46430;BME280;32131;53.454;-6.180;2023-02-03T05:43:58;102589.38;;;9.59;100.00
46430;BME280;32131;53.454;-6.180;2023-02-03T05:46:26;102592.91;;;9.62;100.00
46430;BME280;32131;53.454;-6.180;2023-02-03T05:48:54;102598.31;;;9.66;100.00
46430;BME280;32131;53.454;-6.180;2023-02-03T05:51:22;102597.50;;;9.67;100.00
46430;BME280;32131;53.454;-6.180;2023-02-03T05:53:50;102600.94;;;9.68;100.00
46430;BME280;32131;53.454;-6.180;2023-02-03T05:56:19;102612.06;;;9.67;100.00
46430;BME280;32131;53.454;-6.180;2023-02-03T05:58:48;102613.78;;;9.66;100.00
46430;BME280;32131;53.454;-6.180;2023-02-03T06:01:20;102617.16;;;9.65;100.00
46430;BME280;32131;53.454;-6.180;2023-02-03T06:03:49;102625.69;;;9.64;100.00
46430;BME280;32131;53.454;-6.180;2023-02-03T06:06:17;102627.31;;;9.62;100.00
46430;BME280;32131;53.454;-6.180;2023-02-03T06:08:46;102633.94;;;9.57;100.00
46430;BME280;32131;53.454;-6.180;2023-02-03T06:11:14;102633.09;;;9.56;100.00
46430;BME280;32131;53.454;-6.180;2023-02-03T06:13:42;102650.97;;;9.53;100.00
46430;BME280;32131;53.454;-6.180;2023-02-03T06:16:10;102650.00;;;9.51;100.00
46430;BME280;32131;53.454;-6.180;2023-02-03T06:18:39;102648.31;;;9.52;100.00
46430;BME280;32131;53.454;-6.180;2023-02-03T06:21:08;102650.78;;;9.50;100.00
46430;BME280;32131;53.454;-6.180;2023-02-03T06:23:36;102644.78;;;9.50;100.00
46430;BME280;32131;53.454;-6.180;2023-02-03T06:26:04;102650.78;;;9.50;100.00
46430;BME280;32131;53.454;-6.180;2023-02-03T06:28:32;102643.97;;;9.51;100.00
46430;BME280;32131;53.454;-6.180;2023-02-03T06:31:00;102635.25;;;9.49;100.00
46430;BME280;32131;53.454;-6.180;2023-02-03T06:33:28;102638.66;;;9.48;100.00
46430;BME280;32131;53.454;-6.180;2023-02-03T06:35:58;102645.56;;;9.49;100.00
46430;BME280;32131;53.454;-6.180;2023-02-03T06:38:26;102653.31;;;9.49;100.00
46430;BME280;32131;53.454;-6.180;2023-02-03T06:40:54;102662.81;;;9.50;100.00
46430;BME280;32131;53.454;-6.180;2023-02-03T06:43:22;102675.78;;;9.51;100.00
46430;BME280;32131;53.454;-6.180;2023-02-03T06:45:51;102685.28;;;9.52;100.00
46430;BME280;32131;53.454;-6.180;2023-02-03T06:48:19;102694.88;;;9.55;100.00
46430;BME280;32131;53.454;-6.180;2023-02-03T06:50:47;102687.94;;;9.54;100.00
46430;BME280;32131;53.454;-6.180;2023-02-03T06:53:16;102699.22;;;9.56;100.00
46430;BME280;32131;53.454;-6.180;2023-02-03T06:55:45;102693.28;;;9.57;100.00
46430;BME280;32131;53.454;-6.180;2023-02-03T06:58:14;102704.56;;;9.59;100.00
46430;BME280;32131;53.454;-6.180;2023-02-03T07:00:42;102704.56;;;9.59;100.00
46430;BME280;32131;53.454;-6.180;2023-02-03T07:03:10;102717.53;;;9.60;100.00
46430;BME280;32131;53.454;-6.180;2023-02-03T07:05:39;102699.53;;;9.62;100.00
46430;BME280;32131;53.454;-6.180;2023-02-03T07:08:07;102707.28;;;9.62;100.00
46430;BME280;32131;53.454;-6.180;2023-02-03T07:10:37;102705.53;;;9.61;100.00
46430;BME280;32131;53.454;-6.180;2023-02-03T07:13:06;102699.47;;;9.60;100.00
46430;BME280;32131;53.454;-6.180;2023-02-03T07:15:34;102701.00;;;9.57;100.00
46430;BME280;32131;53.454;-6.180;2023-02-03T07:18:03;102692.22;;;9.53;100.00
46430;BME280;32131;53.454;-6.180;2023-02-03T07:20:31;102686.84;;;9.49;100.00
46430;BME280;32131;53.454;-6.180;2023-02-03T07:22:59;102685.63;;;9.42;100.00
46430;BME280;32131;53.454;-6.180;2023-02-03T07:25:28;102674.84;;;9.33;100.00
46430;BME280;32131;53.454;-6.180;2023-02-03T07:27:57;102682.94;;;9.22;100.00
46430;BME280;32131;53.454;-6.180;2023-02-03T07:30:25;102683.31;;;9.13;100.00
46430;BME280;32131;53.454;-6.180;2023-02-03T07:32:54;102686.38;;;9.06;100.00
46430;BME280;32131;53.454;-6.180;2023-02-03T07:35:24;102699.09;;;9.03;100.00
46430;BME280;32131;53.454;-6.180;2023-02-03T07:37:53;102708.28;;;8.98;100.00
46430;BME280;32131;53.454;-6.180;2023-02-03T07:40:21;102709.72;;;8.93;100.00
46430;BME280;32131;53.454;-6.180;2023-02-03T07:42:49;102730.16;;;8.90;100.00
46430;BME280;32131;53.454;-6.180;2023-02-03T07:45:18;102733.22;;;8.83;100.00
46430;BME280;32131;53.454;-6.180;2023-02-03T07:47:47;102745.84;;;8.78;100.00
46430;BME280;32131;53.454;-6.180;2023-02-03T07:50:16;102751.00;;;8.78;100.00
46430;BME280;32131;53.454;-6.180;2023-02-03T07:52:44;102767.19;;;8.75;100.00
46430;BME280;32131;53.454;-6.180;2023-02-03T07:55:12;102769.03;;;8.78;100.00
46430;BME280;32131;53.454;-6.180;2023-02-03T07:57:40;102766.38;;;8.76;100.00
46430;BME280;32131;53.454;-6.180;2023-02-03T08:00:11;102773.28;;;8.77;100.00
46430;BME280;32131;53.454;-6.180;2023-02-03T08:02:41;102766.28;;;8.75;100.00
46430;BME280;32131;53.454;-6.180;2023-02-03T08:05:10;102753.13;;;8.70;100.00
46430;BME280;32131;53.454;-6.180;2023-02-03T08:07:38;102758.84;;;8.64;100.00
46430;BME280;32131;53.454;-6.180;2023-02-03T08:10:09;102761.00;;;8.57;100.00
46430;BME280;32131;53.454;-6.180;2023-02-03T08:12:38;102771.28;;;8.57;100.00
46430;BME280;32131;53.454;-6.180;2023-02-03T08:15:07;102782.31;;;8.54;100.00
46430;BME280;32131;53.454;-6.180;2023-02-03T08:17:35;102792.69;;;8.56;100.00
46430;BME280;32131;53.454;-6.180;2023-02-03T08:20:07;102804.78;;;8.57;100.00
46430;BME280;32131;53.454;-6.180;2023-02-03T08:22:35;102814.59;;;8.64;100.00
46430;BME280;32131;53.454;-6.180;2023-02-03T08:25:04;102815.84;;;8.71;100.00
46430;BME280;32131;53.454;-6.180;2023-02-03T08:27:33;102823.19;;;8.79;100.00
46430;BME280;32131;53.454;-6.180;2023-02-03T08:30:01;102815.00;;;8.87;100.00
46430;BME280;32131;53.454;-6.180;2023-02-03T08:32:31;102816.31;;;8.95;100.00
46430;BME280;32131;53.454;-6.180;2023-02-03T08:35:00;102817.56;;;9.02;100.00
46430;BME280;32131;53.454;-6.180;2023-02-03T08:37:29;102824.81;;;9.09;100.00
46430;BME280;32131;53.454;-6.180;2023-02-03T08:39:58;102825.31;;;9.18;100.00
46430;BME280;32131;53.454;-6.180;2023-02-03T08:42:27;102831.78;;;9.26;100.00
46430;BME280;32131;53.454;-6.180;2023-02-03T08:44:55;102839.13;;;9.35;100.00
46430;BME280;32131;53.454;-6.180;2023-02-03T08:47:24;102834.38;;;9.43;100.00
46430;BME280;32131;53.454;-6.180;2023-02-03T08:49:52;102837.13;;;9.46;100.00
46430;BME280;32131;53.454;-6.180;2023-02-03T08:52:21;102845.66;;;9.45;100.00
46430;BME280;32131;53.454;-6.180;2023-02-03T08:54:58;102837.63;;;9.39;100.00
46430;BME280;32131;53.454;-6.180;2023-02-03T08:57:26;102839.84;;;9.33;100.00
46430;BME280;32131;53.454;-6.180;2023-02-03T08:59:54;102843.78;;;9.26;100.00
46430;BME280;32131;53.454;-6.180;2023-02-03T09:02:22;102848.78;;;9.23;100.00
46430;BME280;32131;53.454;-6.180;2023-02-03T09:04:51;102849.56;;;9.22;100.00
46430;BME280;32131;53.454;-6.180;2023-02-03T09:07:19;102848.59;;;9.20;100.00
46430;BME280;32131;53.454;-6.180;2023-02-03T09:09:49;102844.34;;;9.20;100.00
46430;BME280;32131;53.454;-6.180;2023-02-03T09:12:18;102850.38;;;9.21;100.00
46430;BME280;32131;53.454;-6.180;2023-02-03T09:14:46;102851.34;;;9.23;100.00
46430;BME280;32131;53.454;-6.180;2023-02-03T09:17:15;102862.78;;;9.28;100.00
46430;BME280;32131;53.454;-6.180;2023-02-03T09:19:43;102850.72;;;9.27;100.00
46430;BME280;32131;53.454;-6.180;2023-02-03T09:22:11;102863.28;;;9.37;100.00
46430;BME280;32131;53.454;-6.180;2023-02-03T09:24:40;102863.06;;;9.49;100.00
46430;BME280;32131;53.454;-6.180;2023-02-03T09:27:08;102857.72;;;9.61;100.00
46430;BME280;32131;53.454;-6.180;2023-02-03T09:29:38;102873.09;;;9.76;100.00
46430;BME280;32131;53.454;-6.180;2023-02-03T09:32:06;102867.69;;;9.88;100.00
46430;BME280;32131;53.454;-6.180;2023-02-03T09:34:36;102883.81;;;10.00;100.00
46430;BME280;32131;53.454;-6.180;2023-02-03T09:37:05;102882.66;;;10.12;100.00
46430;BME280;32131;53.454;-6.180;2023-02-03T09:39:33;102883.47;;;10.27;100.00
46430;BME280;32131;53.454;-6.180;2023-02-03T09:42:26;102880.72;;;10.41;100.00
46430;BME280;32131;53.454;-6.180;2023-02-03T09:45:08;102883.59;;;10.47;100.00
46430;BME280;32131;53.454;-6.180;2023-02-03T09:47:40;102885.78;;;10.56;99.51
46430;BME280;32131;53.454;-6.180;2023-02-03T09:50:13;102885.34;;;10.64;99.15
46430;BME280;32131;53.454;-6.180;2023-02-03T09:52:43;102891.47;;;10.66;98.11
46430;BME280;32131;53.454;-6.180;2023-02-03T09:55:25;102894.06;;;10.66;97.33
46430;BME280;32131;53.454;-6.180;2023-02-03T09:58:01;102884.69;;;10.68;96.21
46430;BME280;32131;53.454;-6.180;2023-02-03T10:00:34;102895.25;;;10.73;95.73
46430;BME280;32131;53.454;-6.180;2023-02-03T10:03:07;102901.44;;;10.77;95.28
46430;BME280;32131;53.454;-6.180;2023-02-03T10:06:01;102915.19;;;10.76;93.94
46430;BME280;32131;53.454;-6.180;2023-02-03T10:09:00;102913.41;;;10.75;93.10
46430;BME280;32131;53.454;-6.180;2023-02-03T10:14:44;102918.91;;;10.99;92.41
46430;BME280;32131;53.454;-6.180;2023-02-03T10:17:26;102916.25;;;11.15;91.55
46430;BME280;32131;53.454;-6.180;2023-02-03T10:20:02;102911.94;;;11.16;91.07
46430;BME280;32131;53.454;-6.180;2023-02-03T10:22:33;102904.03;;;11.13;90.97
46430;BME280;32131;53.454;-6.180;2023-02-03T10:25:14;102909.72;;;11.06;90.90
46430;BME280;32131;53.454;-6.180;2023-02-03T10:27:43;102915.56;;;11.01;90.88
46430;BME280;32131;53.454;-6.180;2023-02-03T10:30:23;102916.22;;;10.97;90.63
46430;BME280;32131;53.454;-6.180;2023-02-03T10:32:56;102917.25;;;11.01;90.33
46430;BME280;32131;53.454;-6.180;2023-02-03T10:35:34;102917.41;;;11.04;90.02
46430;BME280;32131;53.454;-6.180;2023-02-03T10:38:05;102914.03;;;11.05;89.25
46430;BME280;32131;53.454;-6.180;2023-02-03T10:40:36;102922.88;;;11.10;88.36
46430;BME280;32131;53.454;-6.180;2023-02-03T10:43:04;102921.69;;;11.22;88.08
46430;BME280;32131;53.454;-6.180;2023-02-03T10:45:50;102928.06;;;11.28;87.79
46430;BME280;32131;53.454;-6.180;2023-02-03T10:48:20;102929.09;;;11.32;87.72
46430;BME280;32131;53.454;-6.180;2023-02-03T10:50:51;102920.50;;;11.33;87.37
46430;BME280;32131;53.454;-6.180;2023-02-03T10:53:22;102929.16;;;11.33;87.14
46430;BME280;32131;53.454;-6.180;2023-02-03T10:55:59;102929.09;;;11.32;86.70
46430;BME280;32131;53.454;-6.180;2023-02-03T10:58:29;102935.94;;;11.31;85.90
46430;BME280;32131;53.454;-6.180;2023-02-03T11:01:05;102945.31;;;11.29;85.90
46430;BME280;32131;53.454;-6.180;2023-02-03T11:03:40;102942.81;;;11.31;85.99
46430;BME280;32131;53.454;-6.180;2023-02-03T11:06:10;102943.78;;;11.33;85.59
46430;BME280;32131;53.454;-6.180;2023-02-03T11:08:39;102943.03;;;11.36;85.13
46430;BME280;32131;53.454;-6.180;2023-02-03T11:11:13;102943.16;;;11.39;84.93
46430;BME280;32131;53.454;-6.180;2023-02-03T11:13:42;102938.97;;;11.41;85.16
46430;BME280;32131;53.454;-6.180;2023-02-03T11:16:13;102938.09;;;11.40;84.75
46430;BME280;32131;53.454;-6.180;2023-02-03T11:18:54;102939.13;;;11.44;84.89
46430;BME280;32131;53.454;-6.180;2023-02-03T11:21:24;102948.66;;;11.45;84.68
46430;BME280;32131;53.454;-6.180;2023-02-03T11:23:56;102947.69;;;11.43;83.96
46430;BME280;32131;53.454;-6.180;2023-02-03T11:26:31;102955.50;;;11.44;83.76
46430;BME280;32131;53.454;-6.180;2023-02-03T11:29:02;102953.00;;;11.46;83.75
46430;BME280;32131;53.454;-6.180;2023-02-03T11:31:33;102950.56;;;11.49;83.53
46430;BME280;32131;53.454;-6.180;2023-02-03T11:34:06;102947.97;;;11.49;83.54
46430;BME280;32131;53.454;-6.180;2023-02-03T11:36:42;102948.88;;;11.50;82.64
46430;BME280;32131;53.454;-6.180;2023-02-03T11:39:18;102956.41;;;11.45;82.28
46430;BME280;32131;53.454;-6.180;2023-02-03T11:41:47;102952.88;;;11.43;82.66
46430;BME280;32131;53.454;-6.180;2023-02-03T11:44:18;102945.91;;;11.42;82.53
46430;BME280;32131;53.454;-6.180;2023-02-03T11:46:49;102948.88;;;11.50;82.79
46430;BME280;32131;53.454;-6.180;2023-02-03T11:49:49;102951.81;;;11.57;82.64
46430;BME280;32131;53.454;-6.180;2023-02-03T11:52:44;102958.16;;;11.64;82.03
46430;BME280;32131;53.454;-6.180;2023-02-03T11:55:22;102942.91;;;11.70;81.64
46430;BME280;32131;53.454;-6.180;2023-02-03T11:58:09;102954.03;;;11.87;81.26
46430;BME280;32131;53.454;-6.180;2023-02-03T12:00:49;102952.47;;;11.91;80.30
46430;BME280;32131;53.454;-6.180;2023-02-03T12:06:52;102957.66;;;11.91;80.07
46430;BME280;32131;53.454;-6.180;2023-02-03T12:09:33;102962.09;;;11.93;79.95
46430;BME280;32131;53.454;-6.180;2023-02-03T12:12:23;102966.50;;;11.96;79.56
46430;BME280;32131;53.454;-6.180;2023-02-03T12:15:04;102964.16;;;12.01;79.22
46430;BME280;32131;53.454;-6.180;2023-02-03T12:17:48;102954.34;;;12.13;78.61
46430;BME280;32131;53.454;-6.180;2023-02-03T12:20:28;102943.66;;;12.25;77.53
46430;BME280;32131;53.454;-6.180;2023-02-03T12:23:09;102941.19;;;12.28;76.21
46430;BME280;32131;53.454;-6.180;2023-02-03T12:25:51;102933.81;;;12.37;76.10
46430;BME280;32131;53.454;-6.180;2023-02-03T12:28:38;102942.53;;;12.39;74.67
46430;BME280;32131;53.454;-6.180;2023-02-03T12:31:14;102938.00;;;12.55;73.81
46430;BME280;32131;53.454;-6.180;2023-02-03T12:33:49;102939.59;;;12.72;73.07
46430;BME280;32131;53.454;-6.180;2023-02-03T12:36:20;102934.59;;;12.98;72.38
46430;BME280;32131;53.454;-6.180;2023-02-03T12:38:55;102944.06;;;13.19;71.88
46430;BME280;32131;53.454;-6.180;2023-02-03T12:41:28;102942.09;;;13.34;71.31
46430;BME280;32131;53.454;-6.180;2023-02-03T12:44:00;102949.72;;;13.52;71.36
46430;BME280;32131;53.454;-6.180;2023-02-03T12:46:35;102949.00;;;13.57;70.68
46430;BME280;32131;53.454;-6.180;2023-02-03T12:49:17;102942.63;;;13.48;69.72
46430;BME280;32131;53.454;-6.180;2023-02-03T12:51:47;102947.31;;;13.57;70.14
46430;BME280;32131;53.454;-6.180;2023-02-03T12:54:28;102948.19;;;13.58;69.86
46430;BME280;32131;53.454;-6.180;2023-02-03T12:57:07;102951.50;;;13.54;69.13
46430;BME280;32131;53.454;-6.180;2023-02-03T12:59:41;102955.13;;;13.36;69.20
46430;BME280;32131;53.454;-6.180;2023-02-03T13:02:15;102950.88;;;13.38;69.34
46430;BME280;32131;53.454;-6.180;2023-02-03T13:04:49;102955.50;;;13.45;69.07
46430;BME280;32131;53.454;-6.180;2023-02-03T13:07:25;102954.78;;;13.49;68.71
46430;BME280;32131;53.454;-6.180;2023-02-03T13:10:02;102961.28;;;13.61;68.58
46430;BME280;32131;53.454;-6.180;2023-02-03T13:12:36;102958.13;;;13.70;68.26